sensor_id;sensor_type;location;lat;lon;timestamp;P1;durP1;ratioP1;P2;durP2;ratioP2
47523;SDS011;33253;42.144;25.884;2023-06-14T00:00:10;7.03;;;4.60;;
47523;SDS011;33253;42.144;25.884;2023-06-14T00:02:38;9.52;;;4.15;;
47523;SDS011;33253;42.144;25.884;2023-06-14T00:05:04;10.07;;;4.60;;
47523;SDS011;33253;42.144;25.884;2023-06-14T00:07:37;8.48;;;4.45;;
47523;SDS011;33253;42.144;25.884;2023-06-14T00:10:08;7.78;;;4.35;;
47523;SDS011;33253;42.144;25.884;2023-06-14T00:12:34;6.55;;;4.60;;
47523;SDS011;33253;42.144;25.884;2023-06-14T00:15:01;10.07;;;4.28;;
47523;SDS011;33253;42.144;25.884;2023-06-14T00:17:27;7.88;;;4.35;;
47523;SDS011;33253;42.144;25.884;2023-06-14T00:19:56;6.07;;;4.25;;
47523;SDS011;33253;42.144;25.884;2023-06-14T00:22:22;9.20;;;4.20;;
47523;SDS011;33253;42.144;25.884;2023-06-14T00:24:51;6.88;;;4.35;;
47523;SDS011;33253;42.144;25.884;2023-06-14T00:27:17;5.97;;;4.28;;
47523;SDS011;33253;42.144;25.884;2023-06-14T00:29:42;9.88;;;4.40;;
47523;SDS011;33253;42.144;25.884;2023-06-14T00:32:08;7.68;;;4.40;;
47523;SDS011;33253;42.144;25.884;2023-06-14T00:34:33;10.45;;;4.65;;
47523;SDS011;33253;42.144;25.884;2023-06-14T00:36:59;7.45;;;4.50;;
47523;SDS011;33253;42.144;25.884;2023-06-14T00:39:25;7.43;;;4.30;;
47523;SDS011;33253;42.144;25.884;2023-06-14T00:41:50;7.80;;;4.45;;
47523;SDS011;33253;42.144;25.884;2023-06-14T00:44:16;9.57;;;4.43;;
47523;SDS011;33253;42.144;25.884;2023-06-14T00:46:42;7.22;;;4.60;;
47523;SDS011;33253;42.144;25.884;2023-06-14T00:49:08;10.68;;;4.75;;
47523;SDS011;33253;42.144;25.884;2023-06-14T00:51:35;9.40;;;4.90;;
47523;SDS011;33253;42.144;25.884;2023-06-14T00:54:02;12.52;;;4.60;;
47523;SDS011;33253;42.144;25.884;2023-06-14T00:56:28;5.93;;;4.10;;
47523;SDS011;33253;42.144;25.884;2023-06-14T00:58:54;8.05;;;4.32;;
47523;SDS011;33253;42.144;25.884;2023-06-14T01:01:20;8.88;;;4.63;;
47523;SDS011;33253;42.144;25.884;2023-06-14T01:03:47;9.48;;;4.50;;
47523;SDS011;33253;42.144;25.884;2023-06-14T01:06:19;11.20;;;4.60;;
47523;SDS011;33253;42.144;25.884;2023-06-14T01:11:50;8.35;;;4.07;;
47523;SDS011;33253;42.144;25.884;2023-06-14T01:14:24;8.10;;;4.90;;
47523;SDS011;33253;42.144;25.884;2023-06-14T01:16:52;7.90;;;4.88;;
47523;SDS011;33253;42.144;25.884;2023-06-14T01:19:18;10.20;;;3.95;;
47523;SDS011;33253;42.144;25.884;2023-06-14T01:21:47;8.75;;;4.60;;
47523;SDS011;33253;42.144;25.884;2023-06-14T01:24:16;12.52;;;3.80;;
47523;SDS011;33253;42.144;25.884;2023-06-14T01:26:44;11.65;;;4.65;;
47523;SDS011;33253;42.144;25.884;2023-06-14T01:29:12;7.72;;;4.35;;
47523;SDS011;33253;42.144;25.884;2023-06-14T01:31:42;8.40;;;4.90;;
47523;SDS011;33253;42.144;25.884;2023-06-14T01:34:08;8.98;;;4.45;;
47523;SDS011;33253;42.144;25.884;2023-06-14T01:36:34;8.73;;;5.03;;
47523;SDS011;33253;42.144;25.884;2023-06-14T01:39:03;7.75;;;4.65;;
47523;SDS011;33253;42.144;25.884;2023-06-14T01:41:30;6.57;;;4.60;;
47523;SDS011;33253;42.144;25.884;2023-06-14T01:43:56;9.77;;;5.40;;
47523;SDS011;33253;42.144;25.884;2023-06-14T01:46:23;7.78;;;4.40;;
47523;SDS011;33253;42.144;25.884;2023-06-14T01:48:50;11.38;;;5.70;;
47523;SDS011;33253;42.144;25.884;2023-06-14T01:51:16;7.70;;;4.95;;
47523;SDS011;33253;42.144;25.884;2023-06-14T01:53:41;8.18;;;4.72;;
47523;SDS011;33253;42.144;25.884;2023-06-14T01:56:06;9.25;;;4.70;;
47523;SDS011;33253;42.144;25.884;2023-06-14T01:58:32;9.52;;;5.22;;
47523;SDS011;33253;42.144;25.884;2023-06-14T02:00:58;10.00;;;5.28;;
47523;SDS011;33253;42.144;25.884;2023-06-14T02:03:25;9.50;;;5.07;;
47523;SDS011;33253;42.144;25.884;2023-06-14T02:05:51;9.88;;;5.65;;
47523;SDS011;33253;42.144;25.884;2023-06-14T02:08:17;8.68;;;5.15;;
47523;SDS011;33253;42.144;25.884;2023-06-14T02:10:42;11.90;;;5.50;;
47523;SDS011;33253;42.144;25.884;2023-06-14T02:13:08;7.75;;;5.25;;
47523;SDS011;33253;42.144;25.884;2023-06-14T02:15:33;9.00;;;4.93;;
47523;SDS011;33253;42.144;25.884;2023-06-14T02:18:04;7.82;;;6.05;;
47523;SDS011;33253;42.144;25.884;2023-06-14T02:20:30;8.35;;;5.72;;
47523;SDS011;33253;42.144;25.884;2023-06-14T02:22:56;10.57;;;5.78;;
47523;SDS011;33253;42.144;25.884;2023-06-14T02:25:22;10.10;;;5.78;;
47523;SDS011;33253;42.144;25.884;2023-06-14T02:27:47;7.07;;;5.38;;
47523;SDS011;33253;42.144;25.884;2023-06-14T02:30:12;9.35;;;5.25;;
47523;SDS011;33253;42.144;25.884;2023-06-14T02:32:38;6.07;;;4.90;;
47523;SDS011;33253;42.144;25.884;2023-06-14T02:35:05;8.02;;;5.20;;
47523;SDS011;33253;42.144;25.884;2023-06-14T02:37:31;9.60;;;4.70;;
47523;SDS011;33253;42.144;25.884;2023-06-14T02:39:57;8.35;;;5.03;;
47523;SDS011;33253;42.144;25.884;2023-06-14T02:42:23;7.07;;;5.22;;
47523;SDS011;33253;42.144;25.884;2023-06-14T02:44:49;7.13;;;4.78;;
47523;SDS011;33253;42.144;25.884;2023-06-14T02:47:16;8.25;;;4.88;;
47523;SDS011;33253;42.144;25.884;2023-06-14T02:49:46;6.78;;;4.72;;
47523;SDS011;33253;42.144;25.884;2023-06-14T02:52:11;6.97;;;4.85;;
47523;SDS011;33253;42.144;25.884;2023-06-14T02:54:37;6.93;;;5.38;;
47523;SDS011;33253;42.144;25.884;2023-06-14T02:57:03;10.00;;;5.55;;
47523;SDS011;33253;42.144;25.884;2023-06-14T02:59:28;8.13;;;5.15;;
47523;SDS011;33253;42.144;25.884;2023-06-14T03:01:53;10.07;;;5.35;;
47523;SDS011;33253;42.144;25.884;2023-06-14T03:04:19;7.65;;;5.20;;
47523;SDS011;33253;42.144;25.884;2023-06-14T03:06:45;11.18;;;5.72;;
47523;SDS011;33253;42.144;25.884;2023-06-14T03:09:15;9.45;;;6.05;;
47523;SDS011;33253;42.144;25.884;2023-06-14T03:11:41;9.80;;;5.95;;
47523;SDS011;33253;42.144;25.884;2023-06-14T03:14:06;10.45;;;6.22;;
47523;SDS011;33253;42.144;25.884;2023-06-14T03:16:33;11.25;;;6.63;;
47523;SDS011;33253;42.144;25.884;2023-06-14T03:18:59;10.55;;;7.05;;
47523;SDS011;33253;42.144;25.884;2023-06-14T03:21:24;10.32;;;6.40;;
47523;SDS011;33253;42.144;25.884;2023-06-14T03:23:51;10.70;;;6.93;;
47523;SDS011;33253;42.144;25.884;2023-06-14T03:26:17;10.18;;;6.30;;
47523;SDS011;33253;42.144;25.884;2023-06-14T03:28:46;7.60;;;5.38;;
47523;SDS011;33253;42.144;25.884;2023-06-14T03:31:12;8.18;;;6.25;;
47523;SDS011;33253;42.144;25.884;2023-06-14T03:33:38;10.07;;;5.95;;
47523;SDS011;33253;42.144;25.884;2023-06-14T03:36:04;8.90;;;5.55;;
47523;SDS011;33253;42.144;25.884;2023-06-14T03:38:30;10.95;;;5.60;;
47523;SDS011;33253;42.144;25.884;2023-06-14T03:40:55;7.82;;;5.50;;
47523;SDS011;33253;42.144;25.884;2023-06-14T03:43:21;10.65;;;6.05;;
47523;SDS011;33253;42.144;25.884;2023-06-14T03:45:48;11.75;;;6.00;;
47523;SDS011;33253;42.144;25.884;2023-06-14T03:48:13;13.10;;;6.20;;
47523;SDS011;33253;42.144;25.884;2023-06-14T03:50:39;9.02;;;5.95;;
47523;SDS011;33253;42.144;25.884;2023-06-14T03:53:05;11.80;;;6.03;;
47523;SDS011;33253;42.144;25.884;2023-06-14T03:55:31;10.60;;;6.30;;
47523;SDS011;33253;42.144;25.884;2023-06-14T03:57:56;11.38;;;6.18;;
47523;SDS011;33253;42.144;25.884;2023-06-14T04:00:22;11.88;;;5.95;;
47523;SDS011;33253;42.144;25.884;2023-06-14T04:02:48;9.20;;;5.80;;
47523;SDS011;33253;42.144;25.884;2023-06-14T04:05:13;10.02;;;5.68;;
47523;SDS011;33253;42.144;25.884;2023-06-14T04:07:40;9.77;;;6.03;;
47523;SDS011;33253;42.144;25.884;2023-06-14T04:10:10;9.63;;;6.40;;
47523;SDS011;33253;42.144;25.884;2023-06-14T04:12:38;13.85;;;5.90;;
47523;SDS011;33253;42.144;25.884;2023-06-14T04:15:03;11.38;;;7.03;;
47523;SDS011;33253;42.144;25.884;2023-06-14T04:17:31;11.93;;;6.82;;
47523;SDS011;33253;42.144;25.884;2023-06-14T04:19:58;10.73;;;6.38;;
47523;SDS011;33253;42.144;25.884;2023-06-14T04:22:25;8.00;;;6.53;;
47523;SDS011;33253;42.144;25.884;2023-06-14T04:24:53;12.35;;;6.63;;
47523;SDS011;33253;42.144;25.884;2023-06-14T04:27:21;11.57;;;6.85;;
47523;SDS011;33253;42.144;25.884;2023-06-14T04:29:53;13.07;;;6.35;;
47523;SDS011;33253;42.144;25.884;2023-06-14T04:32:28;8.98;;;6.65;;
47523;SDS011;33253;42.144;25.884;2023-06-14T04:34:57;14.30;;;7.72;;
47523;SDS011;33253;42.144;25.884;2023-06-14T04:39:49;12.10;;;7.35;;
47523;SDS011;33253;42.144;25.884;2023-06-14T04:42:16;11.32;;;7.05;;
47523;SDS011;33253;42.144;25.884;2023-06-14T04:44:45;10.32;;;6.22;;
47523;SDS011;33253;42.144;25.884;2023-06-14T04:47:12;13.98;;;7.78;;
47523;SDS011;33253;42.144;25.884;2023-06-14T04:49:39;10.88;;;7.07;;
47523;SDS011;33253;42.144;25.884;2023-06-14T04:52:06;17.95;;;7.93;;
47523;SDS011;33253;42.144;25.884;2023-06-14T04:54:32;16.98;;;7.50;;
47523;SDS011;33253;42.144;25.884;2023-06-14T04:56:58;21.88;;;7.88;;
47523;SDS011;33253;42.144;25.884;2023-06-14T04:59:24;17.35;;;7.15;;
47523;SDS011;33253;42.144;25.884;2023-06-14T05:01:50;31.90;;;8.02;;
47523;SDS011;33253;42.144;25.884;2023-06-14T05:04:16;20.77;;;8.20;;
47523;SDS011;33253;42.144;25.884;2023-06-14T05:06:43;18.40;;;7.40;;
47523;SDS011;33253;42.144;25.884;2023-06-14T05:09:14;22.63;;;7.75;;
47523;SDS011;33253;42.144;25.884;2023-06-14T05:11:43;23.07;;;7.90;;
47523;SDS011;33253;42.144;25.884;2023-06-14T05:14:09;25.90;;;7.85;;
47523;SDS011;33253;42.144;25.884;2023-06-14T05:16:35;31.40;;;8.27;;
47523;SDS011;33253;42.144;25.884;2023-06-14T05:19:02;27.42;;;8.48;;
47523;SDS011;33253;42.144;25.884;2023-06-14T05:21:29;16.40;;;5.85;;
47523;SDS011;33253;42.144;25.884;2023-06-14T05:23:55;14.77;;;6.13;;
47523;SDS011;33253;42.144;25.884;2023-06-14T05:26:21;21.60;;;6.80;;
47523;SDS011;33253;42.144;25.884;2023-06-14T05:28:48;23.00;;;7.07;;
47523;SDS011;33253;42.144;25.884;2023-06-14T05:31:14;28.35;;;6.90;;
47523;SDS011;33253;42.144;25.884;2023-06-14T05:33:40;24.25;;;6.82;;
47523;SDS011;33253;42.144;25.884;2023-06-14T05:36:05;20.77;;;5.97;;
47523;SDS011;33253;42.144;25.884;2023-06-14T05:38:31;21.90;;;5.95;;
47523;SDS011;33253;42.144;25.884;2023-06-14T05:40:56;26.33;;;6.65;;
47523;SDS011;33253;42.144;25.884;2023-06-14T05:43:21;18.50;;;6.30;;
47523;SDS011;33253;42.144;25.884;2023-06-14T05:45:47;26.10;;;7.20;;
47523;SDS011;33253;42.144;25.884;2023-06-14T05:48:13;18.35;;;6.20;;
47523;SDS011;33253;42.144;25.884;2023-06-14T05:50:38;21.38;;;6.38;;
47523;SDS011;33253;42.144;25.884;2023-06-14T05:53:04;15.30;;;6.25;;
47523;SDS011;33253;42.144;25.884;2023-06-14T05:55:29;8.10;;;5.30;;
47523;SDS011;33253;42.144;25.884;2023-06-14T05:57:54;10.57;;;5.28;;
47523;SDS011;33253;42.144;25.884;2023-06-14T06:00:20;9.13;;;4.85;;
47523;SDS011;33253;42.144;25.884;2023-06-14T06:02:45;6.90;;;4.13;;
47523;SDS011;33253;42.144;25.884;2023-06-14T06:05:12;9.20;;;4.30;;
47523;SDS011;33253;42.144;25.884;2023-06-14T06:07:38;7.43;;;3.90;;
47523;SDS011;33253;42.144;25.884;2023-06-14T06:10:07;10.55;;;3.28;;
47523;SDS011;33253;42.144;25.884;2023-06-14T06:12:33;6.88;;;4.18;;
47523;SDS011;33253;42.144;25.884;2023-06-14T06:14:58;5.78;;;3.83;;
47523;SDS011;33253;42.144;25.884;2023-06-14T06:17:24;9.52;;;3.40;;
47523;SDS011;33253;42.144;25.884;2023-06-14T06:19:50;6.28;;;3.70;;
47523;SDS011;33253;42.144;25.884;2023-06-14T06:22:16;5.93;;;3.38;;
47523;SDS011;33253;42.144;25.884;2023-06-14T06:24:42;9.07;;;3.75;;
47523;SDS011;33253;42.144;25.884;2023-06-14T06:27:07;9.57;;;3.55;;
47523;SDS011;33253;42.144;25.884;2023-06-14T06:29:37;6.00;;;3.03;;
47523;SDS011;33253;42.144;25.884;2023-06-14T06:32:03;5.15;;;3.20;;
47523;SDS011;33253;42.144;25.884;2023-06-14T06:34:28;7.55;;;3.50;;
47523;SDS011;33253;42.144;25.884;2023-06-14T06:36:54;5.38;;;3.13;;
47523;SDS011;33253;42.144;25.884;2023-06-14T06:39:20;8.27;;;3.08;;
47523;SDS011;33253;42.144;25.884;2023-06-14T06:41:45;8.50;;;3.17;;
47523;SDS011;33253;42.144;25.884;2023-06-14T06:44:11;10.35;;;3.30;;
47523;SDS011;33253;42.144;25.884;2023-06-14T06:46:38;11.30;;;3.50;;
47523;SDS011;33253;42.144;25.884;2023-06-14T06:49:06;15.50;;;3.23;;
47523;SDS011;33253;42.144;25.884;2023-06-14T06:51:32;9.05;;;3.40;;
47523;SDS011;33253;42.144;25.884;2023-06-14T06:53:57;10.85;;;3.70;;
47523;SDS011;33253;42.144;25.884;2023-06-14T06:56:23;9.57;;;3.60;;
47523;SDS011;33253;42.144;25.884;2023-06-14T06:58:49;11.15;;;3.65;;
47523;SDS011;33253;42.144;25.884;2023-06-14T07:01:15;7.75;;;3.22;;
47523;SDS011;33253;42.144;25.884;2023-06-14T07:03:41;5.85;;;3.17;;
47523;SDS011;33253;42.144;25.884;2023-06-14T07:06:06;8.05;;;3.58;;
47523;SDS011;33253;42.144;25.884;2023-06-14T07:08:32;9.13;;;3.03;;
47523;SDS011;33253;42.144;25.884;2023-06-14T07:10:57;10.10;;;3.15;;
47523;SDS011;33253;42.144;25.884;2023-06-14T07:13:23;7.88;;;3.55;;
47523;SDS011;33253;42.144;25.884;2023-06-14T07:15:48;6.90;;;3.60;;
47523;SDS011;33253;42.144;25.884;2023-06-14T07:18:14;6.40;;;3.83;;
47523;SDS011;33253;42.144;25.884;2023-06-14T07:20:39;6.65;;;3.80;;
47523;SDS011;33253;42.144;25.884;2023-06-14T07:23:05;7.57;;;3.90;;
47523;SDS011;33253;42.144;25.884;2023-06-14T07:25:31;7.60;;;4.10;;
47523;SDS011;33253;42.144;25.884;2023-06-14T07:27:56;5.07;;;3.03;;
47523;SDS011;33253;42.144;25.884;2023-06-14T07:30:22;6.25;;;3.10;;
47523;SDS011;33253;42.144;25.884;2023-06-14T07:32:51;7.22;;;3.30;;
47523;SDS011;33253;42.144;25.884;2023-06-14T07:35:17;5.82;;;3.25;;
47523;SDS011;33253;42.144;25.884;2023-06-14T07:37:43;9.50;;;3.67;;
47523;SDS011;33253;42.144;25.884;2023-06-14T07:40:08;10.18;;;3.95;;
47523;SDS011;33253;42.144;25.884;2023-06-14T07:42:35;7.57;;;3.35;;
47523;SDS011;33253;42.144;25.884;2023-06-14T07:45:01;8.30;;;3.30;;
47523;SDS011;33253;42.144;25.884;2023-06-14T07:47:28;6.63;;;3.20;;
47523;SDS011;33253;42.144;25.884;2023-06-14T07:49:53;5.93;;;3.05;;
47523;SDS011;33253;42.144;25.884;2023-06-14T07:52:18;7.90;;;3.15;;
47523;SDS011;33253;42.144;25.884;2023-06-14T07:54:45;6.07;;;2.60;;
47523;SDS011;33253;42.144;25.884;2023-06-14T07:57:10;10.38;;;2.90;;
47523;SDS011;33253;42.144;25.884;2023-06-14T07:59:35;4.90;;;2.67;;
47523;SDS011;33253;42.144;25.884;2023-06-14T08:02:01;9.80;;;3.10;;
47523;SDS011;33253;42.144;25.884;2023-06-14T08:04:26;5.90;;;3.22;;
47523;SDS011;33253;42.144;25.884;2023-06-14T08:06:52;6.97;;;2.80;;
47523;SDS011;33253;42.144;25.884;2023-06-14T08:09:17;4.30;;;2.72;;
47523;SDS011;33253;42.144;25.884;2023-06-14T08:11:43;5.25;;;2.83;;
47523;SDS011;33253;42.144;25.884;2023-06-14T08:14:08;5.13;;;3.05;;
47523;SDS011;33253;42.144;25.884;2023-06-14T08:16:34;7.45;;;3.28;;
47523;SDS011;33253;42.144;25.884;2023-06-14T08:18:59;6.05;;;2.90;;
47523;SDS011;33253;42.144;25.884;2023-06-14T08:21:25;4.68;;;2.80;;
47523;SDS011;33253;42.144;25.884;2023-06-14T08:23:52;6.43;;;3.40;;
47523;SDS011;33253;42.144;25.884;2023-06-14T08:26:18;4.05;;;2.80;;
47523;SDS011;33253;42.144;25.884;2023-06-14T08:28:43;5.28;;;3.00;;
47523;SDS011;33253;42.144;25.884;2023-06-14T08:31:09;4.28;;;3.20;;
47523;SDS011;33253;42.144;25.884;2023-06-14T08:33:34;5.57;;;2.53;;
47523;SDS011;33253;42.144;25.884;2023-06-14T08:36:00;7.72;;;2.80;;
47523;SDS011;33253;42.144;25.884;2023-06-14T08:38:25;4.00;;;2.67;;
47523;SDS011;33253;42.144;25.884;2023-06-14T08:40:51;7.05;;;2.80;;
47523;SDS011;33253;42.144;25.884;2023-06-14T08:43:17;14.43;;;3.28;;
47523;SDS011;33253;42.144;25.884;2023-06-14T08:45:43;11.25;;;3.20;;
47523;SDS011;33253;42.144;25.884;2023-06-14T08:48:11;13.93;;;3.33;;
47523;SDS011;33253;42.144;25.884;2023-06-14T08:50:41;9.60;;;2.97;;
47523;SDS011;33253;42.144;25.884;2023-06-14T08:53:08;5.55;;;2.80;;
47523;SDS011;33253;42.144;25.884;2023-06-14T08:55:44;8.40;;;2.85;;
47523;SDS011;33253;42.144;25.884;2023-06-14T08:58:10;4.28;;;2.63;;
47523;SDS011;33253;42.144;25.884;2023-06-14T09:00:40;5.68;;;2.60;;
47523;SDS011;33253;42.144;25.884;2023-06-14T09:03:07;4.20;;;2.10;;
47523;SDS011;33253;42.144;25.884;2023-06-14T09:05:38;4.90;;;2.83;;
47523;SDS011;33253;42.144;25.884;2023-06-14T09:08:03;4.25;;;2.42;;
47523;SDS011;33253;42.144;25.884;2023-06-14T09:10:30;3.55;;;2.25;;
47523;SDS011;33253;42.144;25.884;2023-06-14T09:13:03;4.65;;;2.30;;
47523;SDS011;33253;42.144;25.884;2023-06-14T09:15:32;5.10;;;2.58;;
47523;SDS011;33253;42.144;25.884;2023-06-14T09:17:57;5.40;;;2.33;;
47523;SDS011;33253;42.144;25.884;2023-06-14T09:20:23;4.38;;;2.35;;
47523;SDS011;33253;42.144;25.884;2023-06-14T09:22:49;7.55;;;2.50;;
47523;SDS011;33253;42.144;25.884;2023-06-14T09:25:15;8.90;;;2.90;;
47523;SDS011;33253;42.144;25.884;2023-06-14T09:27:41;7.35;;;2.45;;
47523;SDS011;33253;42.144;25.884;2023-06-14T09:30:08;4.82;;;2.53;;
47523;SDS011;33253;42.144;25.884;2023-06-14T09:32:38;6.50;;;2.35;;
47523;SDS011;33253;42.144;25.884;2023-06-14T09:35:07;14.95;;;3.03;;
47523;SDS011;33253;42.144;25.884;2023-06-14T09:37:33;5.47;;;2.47;;
47523;SDS011;33253;42.144;25.884;2023-06-14T09:39:59;4.55;;;2.40;;
47523;SDS011;33253;42.144;25.884;2023-06-14T09:42:25;4.00;;;2.40;;
47523;SDS011;33253;42.144;25.884;2023-06-14T09:44:51;3.72;;;2.35;;
47523;SDS011;33253;42.144;25.884;2023-06-14T09:47:19;8.68;;;2.67;;
47523;SDS011;33253;42.144;25.884;2023-06-14T09:49:44;5.60;;;2.75;;
47523;SDS011;33253;42.144;25.884;2023-06-14T09:52:10;6.10;;;2.80;;
47523;SDS011;33253;42.144;25.884;2023-06-14T09:54:40;5.28;;;2.53;;
47523;SDS011;33253;42.144;25.884;2023-06-14T09:57:11;5.85;;;2.60;;
47523;SDS011;33253;42.144;25.884;2023-06-14T09:59:39;5.53;;;2.20;;
47523;SDS011;33253;42.144;25.884;2023-06-14T10:02:09;3.08;;;2.20;;
47523;SDS011;33253;42.144;25.884;2023-06-14T10:04:39;4.28;;;2.40;;
47523;SDS011;33253;42.144;25.884;2023-06-14T10:07:12;4.28;;;2.33;;
47523;SDS011;33253;42.144;25.884;2023-06-14T10:09:42;3.28;;;2.30;;
47523;SDS011;33253;42.144;25.884;2023-06-14T10:12:13;6.78;;;2.67;;
47523;SDS011;33253;42.144;25.884;2023-06-14T10:14:45;3.92;;;2.45;;
47523;SDS011;33253;42.144;25.884;2023-06-14T10:17:16;4.60;;;2.55;;
47523;SDS011;33253;42.144;25.884;2023-06-14T10:19:49;5.65;;;2.78;;
47523;SDS011;33253;42.144;25.884;2023-06-14T10:22:24;7.85;;;2.72;;
47523;SDS011;33253;42.144;25.884;2023-06-14T10:24:55;7.75;;;3.00;;
47523;SDS011;33253;42.144;25.884;2023-06-14T10:27:21;6.90;;;3.20;;
47523;SDS011;33253;42.144;25.884;2023-06-14T10:32:18;11.60;;;3.20;;
47523;SDS011;33253;42.144;25.884;2023-06-14T10:34:44;9.80;;;3.53;;
47523;SDS011;33253;42.144;25.884;2023-06-14T10:37:13;8.73;;;2.92;;
47523;SDS011;33253;42.144;25.884;2023-06-14T10:42:05;6.32;;;2.58;;
47523;SDS011;33253;42.144;25.884;2023-06-14T10:46:58;5.18;;;2.92;;
47523;SDS011;33253;42.144;25.884;2023-06-14T10:49:42;5.60;;;2.92;;
47523;SDS011;33253;42.144;25.884;2023-06-14T10:52:13;7.13;;;3.20;;
47523;SDS011;33253;42.144;25.884;2023-06-14T10:57:29;8.15;;;3.00;;
47523;SDS011;33253;42.144;25.884;2023-06-14T11:00:02;10.02;;;3.20;;
47523;SDS011;33253;42.144;25.884;2023-06-14T11:05:14;13.38;;;3.15;;
47523;SDS011;33253;42.144;25.884;2023-06-14T11:10:38;7.13;;;3.10;;
47523;SDS011;33253;42.144;25.884;2023-06-14T11:13:06;10.63;;;3.00;;
47523;SDS011;33253;42.144;25.884;2023-06-14T11:15:32;4.22;;;2.58;;
47523;SDS011;33253;42.144;25.884;2023-06-14T11:18:00;7.32;;;2.60;;
47523;SDS011;33253;42.144;25.884;2023-06-14T11:20:27;6.95;;;2.80;;
47523;SDS011;33253;42.144;25.884;2023-06-14T11:22:54;4.90;;;2.78;;
47523;SDS011;33253;42.144;25.884;2023-06-14T11:25:20;3.97;;;2.60;;
47523;SDS011;33253;42.144;25.884;2023-06-14T11:27:46;4.57;;;2.95;;
47523;SDS011;33253;42.144;25.884;2023-06-14T11:30:12;6.93;;;2.92;;
47523;SDS011;33253;42.144;25.884;2023-06-14T11:32:38;7.28;;;2.92;;
47523;SDS011;33253;42.144;25.884;2023-06-14T11:35:04;7.38;;;2.58;;
47523;SDS011;33253;42.144;25.884;2023-06-14T11:37:31;4.68;;;2.88;;
47523;SDS011;33253;42.144;25.884;2023-06-14T11:40:00;6.05;;;2.50;;
47523;SDS011;33253;42.144;25.884;2023-06-14T11:42:26;5.43;;;2.80;;
47523;SDS011;33253;42.144;25.884;2023-06-14T11:44:52;13.15;;;3.33;;
47523;SDS011;33253;42.144;25.884;2023-06-14T11:47:18;4.97;;;3.00;;
47523;SDS011;33253;42.144;25.884;2023-06-14T11:49:44;8.15;;;2.75;;
47523;SDS011;33253;42.144;25.884;2023-06-14T11:52:09;7.53;;;3.13;;
47523;SDS011;33253;42.144;25.884;2023-06-14T11:54:36;7.03;;;2.90;;
47523;SDS011;33253;42.144;25.884;2023-06-14T11:57:02;7.50;;;2.90;;
47523;SDS011;33253;42.144;25.884;2023-06-14T11:59:29;6.65;;;2.78;;
47523;SDS011;33253;42.144;25.884;2023-06-14T12:01:56;6.30;;;2.67;;
47523;SDS011;33253;42.144;25.884;2023-06-14T12:04:24;7.93;;;2.92;;
47523;SDS011;33253;42.144;25.884;2023-06-14T12:06:51;5.57;;;2.70;;
47523;SDS011;33253;42.144;25.884;2023-06-14T12:09:18;4.50;;;2.50;;
47523;SDS011;33253;42.144;25.884;2023-06-14T12:11:44;5.82;;;2.67;;
47523;SDS011;33253;42.144;25.884;2023-06-14T12:14:10;5.90;;;2.60;;
47523;SDS011;33253;42.144;25.884;2023-06-14T12:16:39;2.75;;;2.25;;
47523;SDS011;33253;42.144;25.884;2023-06-14T12:21:41;3.80;;;2.40;;
47523;SDS011;33253;42.144;25.884;2023-06-14T12:24:08;3.70;;;2.30;;
47523;SDS011;33253;42.144;25.884;2023-06-14T12:26:39;4.17;;;2.83;;
47523;SDS011;33253;42.144;25.884;2023-06-14T12:31:32;6.00;;;2.65;;
47523;SDS011;33253;42.144;25.884;2023-06-14T12:33:58;5.25;;;2.42;;
47523;SDS011;33253;42.144;25.884;2023-06-14T12:36:24;5.32;;;2.05;;
47523;SDS011;33253;42.144;25.884;2023-06-14T12:38:50;4.93;;;2.50;;
47523;SDS011;33253;42.144;25.884;2023-06-14T12:41:18;7.63;;;2.55;;
47523;SDS011;33253;42.144;25.884;2023-06-14T12:43:47;4.28;;;2.15;;
47523;SDS011;33253;42.144;25.884;2023-06-14T12:46:13;5.88;;;2.42;;
47523;SDS011;33253;42.144;25.884;2023-06-14T12:48:38;2.90;;;2.10;;
47523;SDS011;33253;42.144;25.884;2023-06-14T12:51:05;6.47;;;2.58;;
47523;SDS011;33253;42.144;25.884;2023-06-14T12:53:30;3.38;;;2.30;;
47523;SDS011;33253;42.144;25.884;2023-06-14T12:55:56;5.88;;;2.33;;
47523;SDS011;33253;42.144;25.884;2023-06-14T12:58:21;9.35;;;2.70;;
47523;SDS011;33253;42.144;25.884;2023-06-14T13:00:48;7.00;;;3.15;;
47523;SDS011;33253;42.144;25.884;2023-06-14T13:03:14;3.65;;;2.60;;
47523;SDS011;33253;42.144;25.884;2023-06-14T13:05:40;6.18;;;2.63;;
47523;SDS011;33253;42.144;25.884;2023-06-14T13:08:07;4.72;;;2.47;;
47523;SDS011;33253;42.144;25.884;2023-06-14T13:10:33;5.82;;;2.60;;
47523;SDS011;33253;42.144;25.884;2023-06-14T13:12:59;8.48;;;3.10;;
47523;SDS011;33253;42.144;25.884;2023-06-14T13:15:25;9.20;;;4.00;;
47523;SDS011;33253;42.144;25.884;2023-06-14T13:17:51;7.18;;;3.72;;
47523;SDS011;33253;42.144;25.884;2023-06-14T13:20:16;7.68;;;2.63;;
47523;SDS011;33253;42.144;25.884;2023-06-14T13:22:42;4.50;;;2.38;;
47523;SDS011;33253;42.144;25.884;2023-06-14T13:25:07;6.82;;;2.80;;
47523;SDS011;33253;42.144;25.884;2023-06-14T13:27:33;8.57;;;2.90;;
47523;SDS011;33253;42.144;25.884;2023-06-14T13:29:58;6.63;;;2.80;;
47523;SDS011;33253;42.144;25.884;2023-06-14T13:32:24;7.40;;;2.90;;
47523;SDS011;33253;42.144;25.884;2023-06-14T13:34:49;5.03;;;2.45;;
47523;SDS011;33253;42.144;25.884;2023-06-14T13:37:16;7.63;;;2.78;;
47523;SDS011;33253;42.144;25.884;2023-06-14T13:39:42;9.82;;;3.35;;
47523;SDS011;33253;42.144;25.884;2023-06-14T13:42:07;7.70;;;2.53;;
47523;SDS011;33253;42.144;25.884;2023-06-14T13:44:33;8.20;;;2.70;;
47523;SDS011;33253;42.144;25.884;2023-06-14T13:46:59;4.28;;;2.60;;
47523;SDS011;33253;42.144;25.884;2023-06-14T13:49:25;10.07;;;3.03;;
47523;SDS011;33253;42.144;25.884;2023-06-14T13:51:50;5.65;;;2.85;;
47523;SDS011;33253;42.144;25.884;2023-06-14T13:54:17;5.43;;;2.65;;
47523;SDS011;33253;42.144;25.884;2023-06-14T13:56:45;4.18;;;2.30;;
47523;SDS011;33253;42.144;25.884;2023-06-14T13:59:11;4.10;;;2.65;;
47523;SDS011;33253;42.144;25.884;2023-06-14T14:01:38;4.88;;;3.00;;
47523;SDS011;33253;42.144;25.884;2023-06-14T14:04:23;4.28;;;2.60;;
47523;SDS011;33253;42.144;25.884;2023-06-14T14:06:49;3.47;;;2.47;;
47523;SDS011;33253;42.144;25.884;2023-06-14T14:09:15;4.18;;;2.40;;
47523;SDS011;33253;42.144;25.884;2023-06-14T14:11:40;2.42;;;2.17;;
47523;SDS011;33253;42.144;25.884;2023-06-14T14:14:07;4.22;;;2.63;;
47523;SDS011;33253;42.144;25.884;2023-06-14T14:16:33;3.95;;;2.47;;
47523;SDS011;33253;42.144;25.884;2023-06-14T14:18:59;6.85;;;2.70;;
47523;SDS011;33253;42.144;25.884;2023-06-14T14:21:25;4.00;;;2.45;;
47523;SDS011;33253;42.144;25.884;2023-06-14T14:23:50;4.97;;;2.35;;
47523;SDS011;33253;42.144;25.884;2023-06-14T14:26:16;5.05;;;2.60;;
47523;SDS011;33253;42.144;25.884;2023-06-14T14:28:42;3.47;;;2.55;;
47523;SDS011;33253;42.144;25.884;2023-06-14T14:31:08;3.42;;;2.60;;
47523;SDS011;33253;42.144;25.884;2023-06-14T14:33:33;5.93;;;2.58;;
47523;SDS011;33253;42.144;25.884;2023-06-14T14:36:00;4.70;;;2.38;;
47523;SDS011;33253;42.144;25.884;2023-06-14T14:38:28;4.05;;;2.47;;
47523;SDS011;33253;42.144;25.884;2023-06-14T14:40:54;6.10;;;2.90;;
47523;SDS011;33253;42.144;25.884;2023-06-14T14:43:19;4.97;;;2.72;;
47523;SDS011;33253;42.144;25.884;2023-06-14T14:45:45;6.35;;;3.20;;
47523;SDS011;33253;42.144;25.884;2023-06-14T14:48:10;7.20;;;2.90;;
47523;SDS011;33253;42.144;25.884;2023-06-14T14:50:36;3.60;;;2.85;;
47523;SDS011;33253;42.144;25.884;2023-06-14T14:53:01;4.82;;;2.53;;